Time;durP1;ratioP1;P1;durP2;ratioP2;P2;SDS_P1;SDS_P2;PMS_P1;PMS_P2;Temp;Humidity;BMP_temperature;BMP_pressure;BME280_temperature;BME280_humidity;BME280_pressure;Samples;Min_cycle;Max_cycle;Signal;HPM_P1;HPM_P2
2023/03/21 00:00:23;;;;;;;1.08;0.98;;;;;;;;;;5018247;28;20053;-75
2023/03/21 00:02:49;;;;;;;1.67;1.00;;;;;;;;;;5018507;28;20041;-74
2023/03/21 00:05:15;;;;;;;2.20;1.05;;;;;;;;;;5018152;28;20049;-74
2023/03/21 00:07:41;;;;;;;3.00;0.80;;;;;;;;;;5009968;28;20022;-74
2023/03/21 00:10:08;;;;;;;1.00;0.90;;;;;;;;;;5026589;28;20033;-74
2023/03/21 00:12:36;;;;;;;0.85;0.85;;;;;;;;;;5029987;28;20437;-74
2023/03/21 00:15:04;;;;;;;1.25;1.02;;;;;;;;;;5028979;28;20025;-74
2023/03/21 00:17:31;;;;;;;1.50;1.08;;;;;;;;;;5030226;28;20116;-74
2023/03/21 00:19:57;;;;;;;5.05;1.23;;;;;;;;;;5028529;28;20109;-74
2023/03/21 00:22:24;;;;;;;1.42;1.15;;;;;;;;;;5030895;28;20501;-74
2023/03/21 00:24:51;;;;;;;1.02;0.93;;;;;;;;;;5031608;28;20082;-74
2023/03/21 00:27:18;;;;;;;1.52;1.23;;;;;;;;;;5031400;28;20145;-74
2023/03/21 00:29:45;;;;;;;0.85;0.85;;;;;;;;;;5028623;28;20240;-73
2023/03/21 00:32:11;;;;;;;4.72;1.30;;;;;;;;;;5029786;28;20079;-74
2023/03/21 00:34:37;;;;;;;1.42;1.33;;;;;;;;;;5027147;28;20029;-75
2023/03/21 00:37:06;;;;;;;3.15;1.17;;;;;;;;;;5027779;28;20605;-75
2023/03/21 00:39:32;;;;;;;1.40;1.30;;;;;;;;;;5028677;28;20244;-75
2023/03/21 00:41:58;;;;;;;2.83;1.08;;;;;;;;;;5028043;28;20047;-75
2023/03/21 00:44:24;;;;;;;0.70;0.70;;;;;;;;;;5028968;28;20022;-75
2023/03/21 00:46:50;;;;;;;4.05;1.02;;;;;;;;;;5027926;28;20027;-75
2023/03/21 00:49:17;;;;;;;4.07;1.17;;;;;;;;;;5026339;28;20036;-75
2023/03/21 00:51:43;;;;;;;1.15;1.08;;;;;;;;;;5028874;28;20033;-73
2023/03/21 00:54:10;;;;;;;1.27;1.05;;;;;;;;;;5028156;28;20630;-74
2023/03/21 00:56:36;;;;;;;1.20;1.05;;;;;;;;;;5025934;28;20442;-74
2023/03/21 00:59:02;;;;;;;1.48;0.93;;;;;;;;;;5027512;28;20148;-74
2023/03/21 01:01:30;;;;;;;2.97;1.20;;;;;;;;;;5027717;28;20498;-75
2023/03/21 01:04:01;;;;;;;0.80;0.80;;;;;;;;;;5029144;28;20096;-74
2023/03/21 01:06:27;;;;;;;1.83;1.05;;;;;;;;;;5028214;28;20596;-75
2023/03/21 01:08:54;;;;;;;1.15;1.05;;;;;;;;;;5027426;28;20037;-74
2023/03/21 01:11:24;;;;;;;1.20;1.10;;;;;;;;;;5027858;28;20026;-74
2023/03/21 01:13:50;;;;;;;1.23;1.13;;;;;;;;;;5025793;28;20030;-75
2023/03/21 01:16:16;;;;;;;1.10;1.00;;;;;;;;;;5027368;28;20060;-74
2023/03/21 01:18:42;;;;;;;0.93;0.85;;;;;;;;;;5027447;28;20038;-74
2023/03/21 01:21:10;;;;;;;1.05;0.95;;;;;;;;;;5027406;28;20473;-75
2023/03/21 01:23:36;;;;;;;1.02;1.02;;;;;;;;;;5025928;28;20474;-75
2023/03/21 01:26:02;;;;;;;1.80;1.10;;;;;;;;;;5027865;28;20412;-74
2023/03/21 01:28:29;;;;;;;1.40;1.30;;;;;;;;;;5025106;28;20032;-75
2023/03/21 01:30:55;;;;;;;1.23;1.13;;;;;;;;;;5025240;28;20109;-75
2023/03/21 01:33:22;;;;;;;3.53;1.05;;;;;;;;;;5025604;28;20171;-74
2023/03/21 01:35:48;;;;;;;1.80;1.23;;;;;;;;;;5024904;28;20030;-75
2023/03/21 01:38:14;;;;;;;1.38;1.00;;;;;;;;;;5024923;28;20026;-74
2023/03/21 01:40:41;;;;;;;1.88;1.30;;;;;;;;;;5023844;28;20063;-75
2023/03/21 01:43:24;;;;;;;1.23;1.10;;;;;;;;;;5025143;28;20596;-75
2023/03/21 01:46:07;;;;;;;1.60;1.27;;;;;;;;;;5024418;28;20053;-75
2023/03/21 01:48:36;;;;;;;6.85;1.48;;;;;;;;;;5025340;28;20038;-74
2023/03/21 01:51:02;;;;;;;1.15;1.00;;;;;;;;;;5026925;28;20028;-75
2023/03/21 01:53:30;;;;;;;0.95;0.95;;;;;;;;;;5026689;28;20021;-75
2023/03/21 01:56:01;;;;;;;1.45;1.33;;;;;;;;;;5026062;28;20423;-74
2023/03/21 01:58:28;;;;;;;1.30;1.15;;;;;;;;;;5025151;28;20456;-75
2023/03/21 02:00:55;;;;;;;1.25;1.15;;;;;;;;;;5024858;28;20021;-74
2023/03/21 02:03:22;;;;;;;1.15;1.05;;;;;;;;;;5026599;28;20033;-74
2023/03/21 02:05:54;;;;;;;1.33;1.10;;;;;;;;;;5025088;28;20699;-74
2023/03/21 02:08:22;;;;;;;1.60;1.10;;;;;;;;;;5026600;28;20033;-74
2023/03/21 02:10:49;;;;;;;1.90;1.02;;;;;;;;;;5026120;28;20095;-75
2023/03/21 02:13:15;;;;;;;2.75;1.30;;;;;;;;;;5026295;28;20060;-74
2023/03/21 02:15:43;;;;;;;1.10;1.10;;;;;;;;;;5025931;28;20261;-75
2023/03/21 02:18:10;;;;;;;1.85;1.63;;;;;;;;;;5024802;28;20025;-74
2023/03/21 02:20:49;;;;;;;2.17;1.33;;;;;;;;;;5025060;28;20014;-75
2023/03/21 02:23:21;;;;;;;0.85;0.85;;;;;;;;;;5026948;28;20030;-76
2023/03/21 02:25:54;;;;;;;1.42;1.33;;;;;;;;;;5028872;28;20026;-74
2023/03/21 02:28:23;;;;;;;1.15;1.00;;;;;;;;;;5028608;28;20051;-75
2023/03/21 02:31:07;;;;;;;3.47;1.40;;;;;;;;;;5026096;28;20046;-75
2023/03/21 02:33:33;;;;;;;1.60;1.15;;;;;;;;;;5027688;28;20021;-74
2023/03/21 02:36:17;;;;;;;1.25;1.10;;;;;;;;;;5029551;28;20367;-74
2023/03/21 02:38:43;;;;;;;1.13;1.02;;;;;;;;;;5031328;28;20041;-74
2023/03/21 02:41:15;;;;;;;1.58;1.15;;;;;;;;;;5030628;28;20026;-74
2023/03/21 02:43:59;;;;;;;1.35;1.25;;;;;;;;;;5029972;28;20147;-74
2023/03/21 02:46:35;;;;;;;0.68;0.68;;;;;;;;;;5030562;28;20446;-74
2023/03/21 02:49:10;;;;;;;1.15;0.90;;;;;;;;;;5030350;28;20332;-74
2023/03/21 02:51:37;;;;;;;3.88;1.10;;;;;;;;;;5030560;28;20026;-73
2023/03/21 02:54:05;;;;;;;4.05;1.15;;;;;;;;;;5030004;28;20029;-73
2023/03/21 02:56:32;;;;;;;1.48;1.20;;;;;;;;;;5029722;28;20426;-73
2023/03/21 02:58:59;;;;;;;1.55;1.30;;;;;;;;;;5030376;28;20041;-74
2023/03/21 03:01:25;;;;;;;3.05;2.05;;;;;;;;;;5029954;28;20014;-73
2023/03/21 03:03:51;;;;;;;1.50;1.02;;;;;;;;;;5029468;28;20560;-73
2023/03/21 03:06:19;;;;;;;1.70;1.60;;;;;;;;;;5029728;28;20079;-72
2023/03/21 03:09:21;;;;;;;1.13;1.02;;;;;;;;;;5030581;28;20108;-73
2023/03/21 03:11:51;;;;;;;1.25;1.23;;;;;;;;;;4948283;29;20431;-73
2023/03/21 03:14:56;;;;;;;1.48;1.10;;;;;;;;;;5016143;28;20041;-73
2023/03/21 03:17:41;;;;;;;2.15;1.30;;;;;;;;;;4948900;29;20039;-73
2023/03/21 03:20:17;;;;;;;1.50;1.40;;;;;;;;;;4950391;29;20034;-75
2023/03/21 03:22:50;;;;;;;1.67;1.40;;;;;;;;;;5005096;28;20042;-75
2023/03/21 03:25:21;;;;;;;1.45;1.10;;;;;;;;;;5030910;28;20778;-74
2023/03/21 03:27:49;;;;;;;2.00;1.20;;;;;;;;;;5030927;28;20087;-74
2023/03/21 03:30:16;;;;;;;1.92;1.20;;;;;;;;;;5031250;28;20099;-75
2023/03/21 03:32:46;;;;;;;1.60;1.27;;;;;;;;;;5031445;28;20025;-75
2023/03/21 03:35:14;;;;;;;1.88;1.30;;;;;;;;;;5030604;28;20386;-75
2023/03/21 03:37:41;;;;;;;4.32;1.00;;;;;;;;;;5031256;28;20588;-75
2023/03/21 03:40:12;;;;;;;1.38;1.25;;;;;;;;;;5032368;28;20171;-75
2023/03/21 03:42:40;;;;;;;1.25;1.10;;;;;;;;;;5030689;28;20132;-74
2023/03/21 03:45:07;;;;;;;2.47;1.25;;;;;;;;;;5031559;28;20028;-76
2023/03/21 03:47:42;;;;;;;1.20;1.10;;;;;;;;;;5031385;28;20029;-75
2023/03/21 03:50:17;;;;;;;2.42;0.77;;;;;;;;;;5032234;28;20030;-75
2023/03/21 03:52:46;;;;;;;7.03;1.33;;;;;;;;;;5032300;28;20052;-75
2023/03/21 03:55:13;;;;;;;1.90;1.20;;;;;;;;;;5032084;28;20017;-75
2023/03/21 03:57:40;;;;;;;2.70;1.48;;;;;;;;;;5030624;28;20596;-75
2023/03/21 04:00:12;;;;;;;1.40;1.30;;;;;;;;;;5032124;28;20493;-75
2023/03/21 04:02:38;;;;;;;3.20;1.17;;;;;;;;;;5032010;28;20041;-75
2023/03/21 04:05:04;;;;;;;2.15;1.17;;;;;;;;;;5032166;28;20036;-75
2023/03/21 04:07:31;;;;;;;1.30;1.20;;;;;;;;;;5032168;28;20052;-75
2023/03/21 04:09:57;;;;;;;2.78;0.95;;;;;;;;;;5032167;28;20022;-75
2023/03/21 04:12:23;;;;;;;1.38;1.27;;;;;;;;;;5030327;28;20029;-75
2023/03/21 04:14:50;;;;;;;1.20;1.10;;;;;;;;;;5031822;28;20025;-75
2023/03/21 04:17:17;;;;;;;2.65;1.00;;;;;;;;;;5031795;28;20025;-75
2023/03/21 04:19:44;;;;;;;1.52;1.42;;;;;;;;;;5031598;28;20475;-75
2023/03/21 04:22:11;;;;;;;0.98;0.98;;;;;;;;;;5030348;28;20404;-75
2023/03/21 04:24:38;;;;;;;2.30;1.25;;;;;;;;;;5030377;28;20087;-75
2023/03/21 04:27:07;;;;;;;1.13;1.08;;;;;;;;;;5030048;28;20034;-75
2023/03/21 04:29:33;;;;;;;1.30;1.20;;;;;;;;;;5031483;28;20049;-74
2023/03/21 04:32:00;;;;;;;2.17;1.73;;;;;;;;;;5030053;28;20030;-74
2023/03/21 04:34:27;;;;;;;1.40;1.30;;;;;;;;;;5031558;28;20098;-74
2023/03/21 04:36:55;;;;;;;1.85;1.20;;;;;;;;;;5031530;28;20495;-74
2023/03/21 04:39:23;;;;;;;1.48;1.38;;;;;;;;;;5031520;28;20060;-75
2023/03/21 04:41:49;;;;;;;1.33;1.20;;;;;;;;;;5031237;28;20119;-75
2023/03/21 04:44:18;;;;;;;3.47;1.63;;;;;;;;;;5031418;28;20025;-74
2023/03/21 04:46:46;;;;;;;1.35;1.10;;;;;;;;;;5031370;28;20105;-74
2023/03/21 04:49:13;;;;;;;1.00;0.90;;;;;;;;;;5031375;28;20366;-74
2023/03/21 04:51:39;;;;;;;1.77;1.27;;;;;;;;;;5032177;28;20025;-74
2023/03/21 04:54:05;;;;;;;1.80;1.70;;;;;;;;;;5030391;28;20029;-74
2023/03/21 04:56:32;;;;;;;5.15;1.50;;;;;;;;;;5029323;28;20032;-74
2023/03/21 04:58:59;;;;;;;1.58;1.20;;;;;;;;;;5029797;28;20025;-74
2023/03/21 05:01:29;;;;;;;2.42;1.40;;;;;;;;;;5030907;28;20527;-75
2023/03/21 05:03:55;;;;;;;1.23;1.13;;;;;;;;;;5029633;28;20494;-74
2023/03/21 05:06:21;;;;;;;1.25;1.15;;;;;;;;;;5029643;28;20112;-75
2023/03/21 05:08:47;;;;;;;1.42;1.30;;;;;;;;;;5031034;28;20128;-74
2023/03/21 05:11:13;;;;;;;1.88;1.50;;;;;;;;;;5030691;28;20025;-75
2023/03/21 05:13:40;;;;;;;1.45;1.20;;;;;;;;;;5030758;28;20017;-75
2023/03/21 05:16:06;;;;;;;2.28;1.67;;;;;;;;;;5030785;28;20463;-75
2023/03/21 05:18:33;;;;;;;1.10;1.00;;;;;;;;;;5030779;28;20033;-75
2023/03/21 05:20:59;;;;;;;1.40;1.30;;;;;;;;;;5030427;28;20437;-75
2023/03/21 05:23:30;;;;;;;1.25;1.15;;;;;;;;;;5029142;28;20180;-75
2023/03/21 05:25:56;;;;;;;1.60;1.50;;;;;;;;;;5030422;28;20018;-75
2023/03/21 05:28:30;;;;;;;5.18;1.77;;;;;;;;;;5030231;28;20367;-75
2023/03/21 05:30:56;;;;;;;1.60;1.45;;;;;;;;;;5030675;28;20051;-75
2023/03/21 05:33:22;;;;;;;1.70;1.60;;;;;;;;;;5028902;28;20057;-75
2023/03/21 05:35:51;;;;;;;1.25;1.15;;;;;;;;;;5030741;28;20080;-75
2023/03/21 05:38:18;;;;;;;1.13;1.02;;;;;;;;;;5028862;28;20485;-75
2023/03/21 05:40:47;;;;;;;1.30;1.20;;;;;;;;;;5030285;28;20108;-75
2023/03/21 05:43:13;;;;;;;1.42;1.30;;;;;;;;;;5030216;28;20034;-75
2023/03/21 05:45:39;;;;;;;2.28;1.77;;;;;;;;;;5028846;28;20460;-75
2023/03/21 05:48:05;;;;;;;1.42;1.33;;;;;;;;;;5028919;28;20021;-75
2023/03/21 05:50:31;;;;;;;1.17;1.08;;;;;;;;;;5028424;28;20029;-75
2023/03/21 05:52:57;;;;;;;2.00;1.50;;;;;;;;;;5029883;28;20100;-75
2023/03/21 05:55:23;;;;;;;2.05;1.20;;;;;;;;;;5030234;28;20489;-75
2023/03/21 05:57:49;;;;;;;2.92;1.52;;;;;;;;;;5029914;28;20060;-75
2023/03/21 06:00:16;;;;;;;1.50;1.40;;;;;;;;;;5029704;28;20022;-75
2023/03/21 06:02:42;;;;;;;2.03;1.90;;;;;;;;;;5029707;28;20037;-75
2023/03/21 06:05:09;;;;;;;1.50;1.35;;;;;;;;;;5029744;28;20104;-75
2023/03/21 06:07:35;;;;;;;1.40;1.27;;;;;;;;;;5029534;28;20109;-75
2023/03/21 06:10:02;;;;;;;1.08;1.08;;;;;;;;;;5029253;28;20100;-75
2023/03/21 06:12:28;;;;;;;5.05;1.55;;;;;;;;;;5030117;28;20119;-75
2023/03/21 06:14:54;;;;;;;1.63;1.38;;;;;;;;;;5021321;28;20071;-75
2023/03/21 06:17:20;;;;;;;1.23;1.10;;;;;;;;;;5012848;28;20342;-75
2023/03/21 06:19:46;;;;;;;1.60;1.50;;;;;;;;;;5011523;28;20352;-75
2023/03/21 06:22:13;;;;;;;1.75;1.55;;;;;;;;;;5010158;28;20396;-75
2023/03/21 06:24:39;;;;;;;3.60;1.55;;;;;;;;;;5009951;28;20022;-75
2023/03/21 06:27:05;;;;;;;1.90;1.48;;;;;;;;;;5009564;28;20479;-75
2023/03/21 06:29:31;;;;;;;1.80;1.50;;;;;;;;;;5009733;28;20061;-75
2023/03/21 06:31:57;;;;;;;3.60;1.85;;;;;;;;;;5010074;28;20054;-75
2023/03/21 06:34:23;;;;;;;6.25;1.50;;;;;;;;;;5009802;28;20030;-74
2023/03/21 06:36:51;;;;;;;1.23;1.13;;;;;;;;;;5017987;28;20088;-77
2023/03/21 06:39:17;;;;;;;1.38;1.20;;;;;;;;;;5009989;28;20091;-76
2023/03/21 06:41:43;;;;;;;1.70;1.60;;;;;;;;;;5009747;28;20088;-75
2023/03/21 06:44:09;;;;;;;2.30;1.60;;;;;;;;;;5010450;28;20026;-76
2023/03/21 06:46:35;;;;;;;5.68;1.60;;;;;;;;;;5013033;28;20113;-75
2023/03/21 06:49:01;;;;;;;2.00;1.25;;;;;;;;;;5009703;28;20101;-76
2023/03/21 06:51:27;;;;;;;1.38;1.27;;;;;;;;;;5009992;28;20065;-75
2023/03/21 06:53:53;;;;;;;2.22;1.55;;;;;;;;;;5009678;28;20033;-76
2023/03/21 06:56:19;;;;;;;1.50;1.40;;;;;;;;;;5009306;28;20042;-76
2023/03/21 06:58:45;;;;;;;1.30;1.20;;;;;;;;;;5009694;28;20076;-77
2023/03/21 07:01:13;;;;;;;1.38;1.10;;;;;;;;;;5009554;28;20052;-76
2023/03/21 07:03:39;;;;;;;1.63;1.08;;;;;;;;;;5009463;28;20040;-75
2023/03/21 07:06:12;;;;;;;1.55;1.30;;;;;;;;;;5009525;28;20022;-76
2023/03/21 07:08:40;;;;;;;1.08;1.08;;;;;;;;;;5009821;28;20465;-75
2023/03/21 07:11:06;;;;;;;1.80;1.65;;;;;;;;;;5009291;28;20030;-75
2023/03/21 07:13:32;;;;;;;4.45;1.70;;;;;;;;;;5009739;28;20022;-76
2023/03/21 07:15:58;;;;;;;1.38;1.27;;;;;;;;;;5009575;28;20022;-77
2023/03/21 07:18:24;;;;;;;3.28;2.10;;;;;;;;;;5009938;28;20057;-75
2023/03/21 07:20:51;;;;;;;3.28;1.65;;;;;;;;;;5012023;28;20068;-75
2023/03/21 07:23:21;;;;;;;2.10;1.88;;;;;;;;;;5027169;28;20041;-76
2023/03/21 07:25:48;;;;;;;2.38;2.17;;;;;;;;;;5031405;28;20054;-74
2023/03/21 07:28:15;;;;;;;3.25;1.98;;;;;;;;;;5032935;28;20029;-78
2023/03/21 07:30:41;;;;;;;4.05;1.80;;;;;;;;;;5041797;28;20053;-77
2023/03/21 07:33:07;;;;;;;2.30;1.85;;;;;;;;;;5033022;28;20362;-76
2023/03/21 07:35:35;;;;;;;2.17;1.73;;;;;;;;;;5031326;28;20269;-77
2023/03/21 07:38:01;;;;;;;2.70;1.50;;;;;;;;;;5036973;28;20268;-77
2023/03/21 07:40:27;;;;;;;2.35;1.20;;;;;;;;;;5037643;28;20159;-77
2023/03/21 07:42:53;;;;;;;1.30;1.20;;;;;;;;;;5031195;28;20033;-78
2023/03/21 07:45:20;;;;;;;1.50;1.40;;;;;;;;;;5028591;28;20048;-75
2023/03/21 07:47:47;;;;;;;2.85;1.80;;;;;;;;;;5028785;28;20026;-74
2023/03/21 07:50:14;;;;;;;2.47;1.60;;;;;;;;;;5039822;28;20190;-74
2023/03/21 07:52:40;;;;;;;1.65;1.40;;;;;;;;;;5038721;28;20023;-75
2023/03/21 07:55:07;;;;;;;3.78;1.88;;;;;;;;;;5039372;28;20043;-76
2023/03/21 07:57:33;;;;;;;1.60;1.50;;;;;;;;;;5040190;28;20029;-76
2023/03/21 07:59:59;;;;;;;1.98;1.40;;;;;;;;;;5035937;28;20028;-76
2023/03/21 08:02:25;;;;;;;2.72;2.08;;;;;;;;;;5039386;28;20052;-76
2023/03/21 08:04:51;;;;;;;4.18;1.70;;;;;;;;;;5030483;28;20009;-76
2023/03/21 08:07:18;;;;;;;2.13;1.15;;;;;;;;;;5034536;28;20305;-75
2023/03/21 08:09:47;;;;;;;1.63;1.23;;;;;;;;;;5037906;28;20025;-76
2023/03/21 08:12:13;;;;;;;1.83;1.73;;;;;;;;;;5032499;28;20307;-75
2023/03/21 08:14:39;;;;;;;2.60;1.60;;;;;;;;;;5031428;28;20040;-77
2023/03/21 08:17:08;;;;;;;1.63;1.30;;;;;;;;;;5048852;28;20075;-77
2023/03/21 08:19:34;;;;;;;2.45;1.88;;;;;;;;;;5048185;28;20112;-76
2023/03/21 08:22:01;;;;;;;1.50;1.40;;;;;;;;;;5040645;28;20060;-77
2023/03/21 08:24:27;;;;;;;4.75;1.58;;;;;;;;;;5028572;28;20084;-75
2023/03/21 08:26:54;;;;;;;3.97;1.55;;;;;;;;;;5028484;28;20022;-77
2023/03/21 08:29:20;;;;;;;1.80;1.70;;;;;;;;;;5030038;28;20050;-75
2023/03/21 08:31:46;;;;;;;2.75;1.58;;;;;;;;;;5049838;28;20086;-74
2023/03/21 08:34:12;;;;;;;1.30;1.08;;;;;;;;;;5050294;28;20021;-75
2023/03/21 08:36:39;;;;;;;1.83;1.67;;;;;;;;;;5048498;28;20033;-75
2023/03/21 08:39:05;;;;;;;1.42;1.33;;;;;;;;;;5048654;28;20071;-75
2023/03/21 08:41:35;;;;;;;1.60;1.50;;;;;;;;;;5047240;28;20144;-74
2023/03/21 08:44:02;;;;;;;3.13;1.50;;;;;;;;;;5048112;28;20033;-74
2023/03/21 08:46:29;;;;;;;1.40;1.25;;;;;;;;;;5047634;28;20029;-74
2023/03/21 08:48:55;;;;;;;2.63;1.92;;;;;;;;;;5047991;28;20295;-74
2023/03/21 08:51:21;;;;;;;1.83;1.60;;;;;;;;;;5047389;28;20267;-74
2023/03/21 08:53:50;;;;;;;1.52;1.42;;;;;;;;;;5047593;28;20021;-75
2023/03/21 08:56:16;;;;;;;3.22;1.60;;;;;;;;;;5047596;28;20028;-73
2023/03/21 08:58:43;;;;;;;3.58;1.50;;;;;;;;;;5048223;28;20029;-74
2023/03/21 09:01:10;;;;;;;3.58;1.70;;;;;;;;;;5042021;28;20071;-74
2023/03/21 09:03:39;;;;;;;2.08;1.90;;;;;;;;;;5027759;28;20041;-75
2023/03/21 09:06:05;;;;;;;2.63;1.80;;;;;;;;;;5041519;28;20061;-76
2023/03/21 09:08:31;;;;;;;5.13;1.58;;;;;;;;;;5050001;28;20063;-76
2023/03/21 09:10:57;;;;;;;3.22;1.75;;;;;;;;;;5048607;28;20028;-75
2023/03/21 09:13:24;;;;;;;1.50;1.40;;;;;;;;;;5048204;28;20104;-76
2023/03/21 09:15:51;;;;;;;1.67;1.58;;;;;;;;;;5047000;28;20029;-77
2023/03/21 09:18:21;;;;;;;1.83;1.73;;;;;;;;;;5047298;28;20370;-76
2023/03/21 09:20:49;;;;;;;2.85;2.35;;;;;;;;;;5049733;28;20079;-76
2023/03/21 09:23:15;;;;;;;12.13;2.10;;;;;;;;;;5031007;28;20393;-77
2023/03/21 09:25:42;;;;;;;3.60;2.13;;;;;;;;;;5027456;28;20476;-77
2023/03/21 09:28:08;;;;;;;1.65;1.50;;;;;;;;;;5027950;28;20226;-77
2023/03/21 09:30:35;;;;;;;4.43;2.00;;;;;;;;;;5028765;28;20037;-76
2023/03/21 09:33:05;;;;;;;2.53;2.33;;;;;;;;;;5029794;28;20022;-76
2023/03/21 09:35:31;;;;;;;2.35;1.55;;;;;;;;;;5028492;28;20025;-76
2023/03/21 09:37:58;;;;;;;1.50;1.40;;;;;;;;;;5027590;28;20022;-75
2023/03/21 09:40:30;;;;;;;2.25;1.73;;;;;;;;;;5026982;28;20485;-76
2023/03/21 09:42:57;;;;;;;1.50;1.40;;;;;;;;;;5026506;28;20173;-75
2023/03/21 09:45:30;;;;;;;3.22;1.35;;;;;;;;;;5027744;28;20021;-75
2023/03/21 09:47:57;;;;;;;2.65;1.65;;;;;;;;;;5029073;28;20102;-76
2023/03/21 09:50:30;;;;;;;2.67;1.70;;;;;;;;;;5026663;28;20072;-75
2023/03/21 09:53:06;;;;;;;3.03;1.20;;;;;;;;;;5025218;28;20053;-75
2023/03/21 09:55:34;;;;;;;2.15;1.70;;;;;;;;;;5027444;28;20067;-77
2023/03/21 09:58:03;;;;;;;2.20;1.60;;;;;;;;;;5026693;28;20029;-75
2023/03/21 10:00:29;;;;;;;;;;;;;;;;;;5026308;28;20461;-75
2023/03/21 10:03:01;;;;;;;3.00;1.63;;;;;;;;;;5026846;28;19917;-74
2023/03/21 10:05:30;;;;;;;2.35;1.38;;;;;;;;;;5027029;28;20132;-75
2023/03/21 10:08:04;;;;;;;3.47;1.10;;;;;;;;;;5029063;28;20271;-75
2023/03/21 10:10:50;;;;;;;2.25;1.70;;;;;;;;;;5026469;28;20100;-74
2023/03/21 10:13:19;;;;;;;2.35;1.52;;;;;;;;;;5026434;28;20021;-74
2023/03/21 10:15:46;;;;;;;1.55;1.38;;;;;;;;;;5027588;28;20210;-74
2023/03/21 10:18:15;;;;;;;2.10;1.70;;;;;;;;;;5026839;28;20030;-76
2023/03/21 10:20:41;;;;;;;;;;;;;;;;;;5027121;28;20417;-76
2023/03/21 10:23:11;;;;;;;2.10;1.70;;;;;;;;;;5026861;28;19924;-75
2023/03/21 10:25:43;;;;;;;2.47;1.60;;;;;;;;;;5026628;28;20115;-75
2023/03/21 10:28:12;;;;;;;3.17;1.65;;;;;;;;;;5037042;28;20333;-74
2023/03/21 10:30:38;;;;;;;;;;;;;;;;;;5035928;28;20045;-75
2023/03/21 10:33:08;;;;;;;2.92;1.75;;;;;;;;;;5037955;28;19905;-75
2023/03/21 10:35:35;;;;;;;3.20;1.55;;;;;;;;;;5035091;28;20096;-75
2023/03/21 10:38:02;;;;;;;3.35;1.75;;;;;;;;;;5036510;28;20138;-74
2023/03/21 10:40:28;;;;;;;3.70;2.15;;;;;;;;;;5035008;28;20022;-75
2023/03/21 10:42:55;;;;;;;1.10;1.02;;;;;;;;;;5036465;28;20112;-75
2023/03/21 10:45:21;;;;;;;1.40;1.30;;;;;;;;;;5037068;28;20025;-74
2023/03/21 10:47:48;;;;;;;1.15;1.05;;;;;;;;;;5037070;28;20116;-75
2023/03/21 10:50:16;;;;;;;1.08;1.08;;;;;;;;;;5036875;28;20025;-75
2023/03/21 10:52:46;;;;;;;3.03;1.17;;;;;;;;;;5034001;28;20033;-74
2023/03/21 10:55:12;;;;;;;;;;;;;;;;;;5038718;28;20029;-75
2023/03/21 10:57:38;;;;;;;1.80;1.23;;;;;;;;;;5041057;28;19901;-75
2023/03/21 11:00:13;;;;;;;1.27;1.10;;;;;;;;;;5037347;28;20252;-74
2023/03/21 11:02:40;;;;;;;1.10;1.10;;;;;;;;;;5039793;28;20040;-75
2023/03/21 11:05:08;;;;;;;1.75;1.30;;;;;;;;;;5037664;28;20029;-74
2023/03/21 11:07:36;;;;;;;5.22;1.00;;;;;;;;;;5037505;28;20029;-75
2023/03/21 11:10:11;;;;;;;4.03;1.17;;;;;;;;;;5037029;28;20029;-75
2023/03/21 11:12:45;;;;;;;1.17;1.17;;;;;;;;;;5039259;28;20033;-76
2023/03/21 11:15:26;;;;;;;1.08;0.98;;;;;;;;;;5033686;28;20128;-75
2023/03/21 11:17:52;;;;;;;0.95;0.95;;;;;;;;;;5039552;28;20056;-76
2023/03/21 11:20:19;;;;;;;1.10;1.00;;;;;;;;;;5040741;28;20033;-74
2023/03/21 11:22:46;;;;;;;1.88;1.13;;;;;;;;;;5040668;28;20245;-76
2023/03/21 11:25:21;;;;;;;1.05;0.95;;;;;;;;;;5038553;28;20029;-76
2023/03/21 11:27:54;;;;;;;0.73;0.70;;;;;;;;;;5054545;28;20048;-76
2023/03/21 11:30:21;;;;;;;1.25;0.80;;;;;;;;;;5060272;28;20084;-75
2023/03/21 11:32:51;;;;;;;3.90;1.38;;;;;;;;;;5058856;28;20060;-76
2023/03/21 11:35:17;;;;;;;;;;;;;;;;;;5060433;28;20063;-76
2023/03/21 11:37:49;;;;;;;0.77;0.77;;;;;;;;;;5053459;28;19916;-75
2023/03/21 11:40:24;;;;;;;1.27;1.00;;;;;;;;;;5051644;28;20229;-76
2023/03/21 11:42:52;;;;;;;0.50;0.50;;;;;;;;;;5041973;28;20103;-77
2023/03/21 11:45:18;;;;;;;0.85;0.60;;;;;;;;;;5028416;28;20128;-77
2023/03/21 11:47:45;;;;;;;0.90;0.80;;;;;;;;;;5045961;28;20036;-78
2023/03/21 11:50:20;;;;;;;0.90;0.90;;;;;;;;;;5048813;28;20462;-77
2023/03/21 11:52:49;;;;;;;2.72;1.00;;;;;;;;;;5049658;28;20098;-77
2023/03/21 11:55:45;;;;;;;0.95;0.70;;;;;;;;;;5048795;28;20025;-78
2023/03/21 11:58:11;;;;;;;1.65;0.70;;;;;;;;;;4999962;28;20061;-76
2023/03/21 12:00:47;;;;;;;0.60;0.60;;;;;;;;;;5009446;28;20026;-77
2023/03/21 12:03:28;;;;;;;0.80;0.60;;;;;;;;;;5015977;28;20333;-77
2023/03/21 12:05:56;;;;;;;0.98;0.85;;;;;;;;;;5027630;28;20026;-76
2023/03/21 12:08:22;;;;;;;0.75;0.70;;;;;;;;;;5026949;28;20033;-76
2023/03/21 12:11:03;;;;;;;0.70;0.70;;;;;;;;;;5028207;28;20030;-77
2023/03/21 12:13:44;;;;;;;0.63;0.60;;;;;;;;;;5027881;28;20052;-75
2023/03/21 12:16:14;;;;;;;0.43;0.43;;;;;;;;;;5027340;28;20026;-77
2023/03/21 12:18:58;;;;;;;2.15;0.50;;;;;;;;;;5029996;28;20243;-79
2023/03/21 12:21:37;;;;;;;0.45;0.43;;;;;;;;;;5026866;28;20033;-77
2023/03/21 12:24:07;;;;;;;0.40;0.40;;;;;;;;;;5027544;28;20088;-77
2023/03/21 12:26:53;;;;;;;1.23;0.60;;;;;;;;;;5033539;28;20021;-77
2023/03/21 12:29:31;;;;;;;0.52;0.52;;;;;;;;;;5034551;28;20041;-76
2023/03/21 12:32:36;;;;;;;0.40;0.40;;;;;;;;;;5052065;28;20031;-77
2023/03/21 12:35:22;;;;;;;0.55;0.55;;;;;;;;;;4987838;28;20034;-78
2023/03/21 12:37:51;;;;;;;0.50;0.40;;;;;;;;;;4961217;28;20046;-77
2023/03/21 12:40:26;;;;;;;1.50;0.60;;;;;;;;;;5031394;28;20041;-77
2023/03/21 12:42:59;;;;;;;1.45;0.60;;;;;;;;;;5055506;28;20040;-77
2023/03/21 12:45:28;;;;;;;0.80;0.80;;;;;;;;;;5052000;28;20012;-76
2023/03/21 12:48:01;;;;;;;0.98;0.70;;;;;;;;;;5052610;28;20044;-75
2023/03/21 12:50:29;;;;;;;0.45;0.45;;;;;;;;;;5052706;28;20028;-77
2023/03/21 12:52:58;;;;;;;1.10;1.00;;;;;;;;;;5047559;28;20459;-77
2023/03/21 12:55:32;;;;;;;2.83;0.70;;;;;;;;;;5046606;28;20032;-77
2023/03/21 12:58:02;;;;;;;0.90;0.65;;;;;;;;;;5046388;28;20429;-78
2023/03/21 13:00:32;;;;;;;1.25;0.70;;;;;;;;;;5046579;28;20055;-78
2023/03/21 13:03:00;;;;;;;0.73;0.73;;;;;;;;;;5046259;28;20120;-78
2023/03/21 13:05:34;;;;;;;0.70;0.70;;;;;;;;;;5046722;28;20029;-77
2023/03/21 13:08:06;;;;;;;0.77;0.68;;;;;;;;;;5047878;28;20033;-77
2023/03/21 13:10:33;;;;;;;0.80;0.80;;;;;;;;;;5046151;28;20025;-77
2023/03/21 13:13:12;;;;;;;0.50;0.50;;;;;;;;;;5045778;28;20466;-77
2023/03/21 13:15:43;;;;;;;1.35;1.20;;;;;;;;;;5026392;28;20028;-77
2023/03/21 13:18:18;;;;;;;1.17;0.98;;;;;;;;;;5025688;28;20509;-77
2023/03/21 13:20:55;;;;;;;0.70;0.70;;;;;;;;;;5026163;28;20302;-77
2023/03/21 13:23:22;;;;;;;1.23;0.70;;;;;;;;;;5043720;28;20094;-78
2023/03/21 13:25:49;;;;;;;0.50;0.50;;;;;;;;;;5046891;28;20489;-76
2023/03/21 13:28:19;;;;;;;0.50;0.50;;;;;;;;;;5049199;28;20543;-78
2023/03/21 13:30:48;;;;;;;2.42;0.75;;;;;;;;;;5047233;28;20436;-76
2023/03/21 13:33:16;;;;;;;2.03;0.80;;;;;;;;;;5047502;28;20039;-77
2023/03/21 13:35:43;;;;;;;2.03;0.75;;;;;;;;;;5050378;28;20029;-76
2023/03/21 13:38:25;;;;;;;0.60;0.60;;;;;;;;;;5045298;28;20071;-78
2023/03/21 13:40:54;;;;;;;0.85;0.57;;;;;;;;;;5045105;28;20071;-77
2023/03/21 13:43:29;;;;;;;2.13;1.10;;;;;;;;;;5045576;28;20045;-76
2023/03/21 13:45:55;;;;;;;1.00;1.00;;;;;;;;;;5045775;28;20120;-76
2023/03/21 13:48:32;;;;;;;0.70;0.70;;;;;;;;;;5046721;28;20028;-78
2023/03/21 13:51:02;;;;;;;1.63;0.65;;;;;;;;;;5044688;28;20509;-78
2023/03/21 13:53:38;;;;;;;1.95;0.82;;;;;;;;;;5045216;28;20112;-76
2023/03/21 13:56:23;;;;;;;0.75;0.50;;;;;;;;;;5052009;28;20481;-74
2023/03/21 13:58:49;;;;;;;0.93;0.75;;;;;;;;;;5054463;28;20033;-74
2023/03/21 14:01:26;;;;;;;0.55;0.55;;;;;;;;;;5048337;28;20029;-74
2023/03/21 14:04:00;;;;;;;1.10;0.85;;;;;;;;;;5045863;28;20032;-74
2023/03/21 14:06:31;;;;;;;1.48;1.10;;;;;;;;;;5046239;28;20025;-74
2023/03/21 14:08:58;;;;;;;2.05;0.93;;;;;;;;;;5046370;28;20017;-75
2023/03/21 14:11:23;;;;;;;0.80;0.80;;;;;;;;;;5046882;28;20029;-75
2023/03/21 14:13:50;;;;;;;0.60;0.60;;;;;;;;;;5045763;28;20094;-75
2023/03/21 14:16:17;;;;;;;0.85;0.75;;;;;;;;;;5045841;28;20036;-76
2023/03/21 14:18:45;;;;;;;0.77;0.65;;;;;;;;;;5045660;28;20516;-76
2023/03/21 14:21:19;;;;;;;3.28;0.70;;;;;;;;;;5045206;28;20040;-76
2023/03/21 14:23:45;;;;;;;1.50;0.90;;;;;;;;;;5026020;28;20045;-75
2023/03/21 14:26:12;;;;;;;1.33;0.90;;;;;;;;;;5028038;28;20209;-73
2023/03/21 14:28:41;;;;;;;3.17;1.15;;;;;;;;;;5038187;28;20075;-74
2023/03/21 14:31:13;;;;;;;1.98;0.90;;;;;;;;;;5034153;28;20029;-75
2023/03/21 14:33:40;;;;;;;1.80;1.08;;;;;;;;;;5045421;28;20063;-74
2023/03/21 14:36:10;;;;;;;1.75;1.10;;;;;;;;;;5050335;28;20025;-74
2023/03/21 14:38:37;;;;;;;2.58;1.10;;;;;;;;;;5049896;28;20037;-74
2023/03/21 14:41:03;;;;;;;4.70;1.17;;;;;;;;;;5044527;28;20029;-75
2023/03/21 14:43:32;;;;;;;0.65;0.65;;;;;;;;;;5045630;28;20528;-75
2023/03/21 14:45:59;;;;;;;1.38;0.95;;;;;;;;;;5046223;28;20071;-76
2023/03/21 14:48:30;;;;;;;1.13;0.90;;;;;;;;;;5044561;28;20037;-75
2023/03/21 14:50:57;;;;;;;0.70;0.70;;;;;;;;;;5046247;28;20458;-77
2023/03/21 14:53:23;;;;;;;0.88;0.60;;;;;;;;;;5048982;28;20078;-75
2023/03/21 14:55:52;;;;;;;0.75;0.50;;;;;;;;;;5045409;28;20104;-74